CheckWX is a tool to help pilots better visualize weather data.  It is not intended as a substitute for an official pre-flight weather briefing.

07:14:51 UTC

LFOB METAR
Paris Beauvais Tillé Airport
Beauvais/Tillé, France
Current

15 mins ago

LFOB 180700Z AUTO 02007KT CAVOK 11/07 Q1027 NOSIG
Observed
Sep-18 @ 07:00 UTC
Wind
  • 020° at 7 KTS
Visibility
10,000+ meters
Flight Rules
VFR
Cloud Levels
  • Clear skies
Temperature
11°C / 52°F
Dewpoint
C / 45°F
Humidity
77%
Altimeter
30.32" Hg
Pressure
1026.92 hPa
Previous

45 mins ago

LFOB 180630Z AUTO 02007KT CAVOK 09/07 Q1026 NOSIG
Observed
Sep-18 @ 06:30 UTC
Wind
  • 020° at 7 KTS
Visibility
10,000+ meters
Flight Rules
VFR
Cloud Levels
  • Clear skies
Temperature
C / 48°F
Dewpoint
C / 45°F
Humidity
87%
Altimeter
30.3" Hg
Pressure
1025.92 hPa
Previous

1 hour ago

LFOB 180600Z AUTO 02007KT CAVOK 07/06 Q1026 NOSIG
Observed
Sep-18 @ 06:00 UTC
Wind
  • 020° at 7 KTS
Visibility
10,000+ meters
Flight Rules
VFR
Cloud Levels
  • Clear skies
Temperature
C / 45°F
Dewpoint
C / 43°F
Humidity
93%
Altimeter
30.3" Hg
Pressure
1025.92 hPa